Time;durP1;ratioP1;P1;durP2;ratioP2;P2;SDS_P1;SDS_P2;PMS_P1;PMS_P2;Temp;Humidity;BMP_temperature;BMP_pressure;BME280_temperature;BME280_humidity;BME280_pressure;Samples;Min_cycle;Max_cycle;Signal;HPM_P1;HPM_P2
2021/09/28 00:01:20;;;;;;;3.75;2.87;;;;;;;9.78;79.67;101129.59;1663780;84;21195;-59
2021/09/28 00:03:47;;;;;;;4.40;3.13;;;;;;;9.75;79.77;101129.41;1655048;84;21140;-59
2021/09/28 00:06:14;;;;;;;;;;;;;;;9.65;79.74;101126.06;1669800;84;21052;-59
2021/09/28 00:08:42;;;;;;;;;;;;;;;9.68;79.64;101137.23;1659381;84;20215;-57
2021/09/28 00:11:11;;;;;;;;;;;;;;;9.47;80.05;101123.00;1662483;84;20188;-57
2021/09/28 00:13:39;;;;;;;3.17;2.97;;;;;;;9.42;80.26;101131.99;1655278;84;20112;-58
2021/09/28 00:16:06;;;;;;;3.83;2.90;;;;;;;9.31;80.49;101126.96;1667720;84;21709;-58
2021/09/28 00:18:32;;;;;;;;;;;;;;;9.30;80.51;101127.44;1675687;84;21558;-59
2021/09/28 00:20:59;;;;;;;4.87;3.67;;;;;;;9.33;80.34;101128.97;1662689;84;20146;-58
2021/09/28 00:23:27;;;;;;;3.97;3.70;;;;;;;9.25;80.30;101131.57;1656338;84;21816;-58
2021/09/28 00:25:53;;;;;;;4.72;3.08;;;;;;;9.22;80.45;101127.42;1661797;84;21096;-58
2021/09/28 00:28:21;;;;;;;3.77;2.90;;;;;;;9.26;80.78;101131.92;1654811;84;21025;-58
2021/09/28 00:30:47;;;;;;;3.87;3.37;;;;;;;9.31;81.43;101130.95;1669493;84;21690;-58
2021/09/28 00:33:14;;;;;;;;;;;;;;;9.32;81.67;101124.63;1681247;84;21614;-58
2021/09/28 00:35:40;;;;;;;3.80;3.50;;;;;;;9.30;81.54;101126.61;1694483;82;20139;-58
2021/09/28 00:38:06;;;;;;;4.83;3.87;;;;;;;9.26;81.56;101131.92;1702103;84;21592;-58
2021/09/28 00:40:33;;;;;;;3.90;3.60;;;;;;;9.24;81.13;101129.42;1687894;82;21595;-58
2021/09/28 00:43:00;;;;;;;4.83;4.42;;;;;;;9.20;80.81;101131.24;1686666;84;21103;-59
2021/09/28 00:45:26;;;;;;;4.37;3.97;;;;;;;9.13;80.85;101136.35;1685088;82;21625;-58
2021/09/28 00:47:53;;;;;;;4.67;3.58;;;;;;;9.06;80.82;101128.66;1689785;82;21655;-59
2021/09/28 00:50:20;;;;;;;3.47;3.17;;;;;;;9.00;80.61;101120.83;1686699;82;21028;-58
2021/09/28 00:52:47;;;;;;;;;;;;;;;8.99;80.34;101123.67;1706343;82;21526;-59
2021/09/28 00:55:17;;;;;;;3.72;3.42;;;;;;;8.97;80.46;101118.50;1696720;82;20139;-57
2021/09/28 00:57:45;;;;;;;3.70;3.40;;;;;;;8.89;80.57;101120.63;1691930;82;21072;-58
2021/09/28 01:00:15;;;;;;;4.23;3.93;;;;;;;8.82;80.62;101115.59;1692326;82;21012;-58
2021/09/28 01:02:43;;;;;;;4.03;3.73;;;;;;;8.72;81.06;101125.02;1688638;82;21075;-58
2021/09/28 01:05:10;;;;;;;5.33;4.07;;;;;;;8.64;81.35;101119.62;1698134;82;21072;-58
2021/09/28 01:07:37;;;;;;;4.03;3.73;;;;;;;8.62;81.65;101118.95;1701408;82;21570;-59
2021/09/28 01:10:07;;;;;;;4.07;3.43;;;;;;;8.67;81.77;101117.17;1702188;82;21065;-58
2021/09/28 01:12:33;;;;;;;3.77;3.47;;;;;;;8.70;81.46;101120.83;1686234;82;21080;-58
2021/09/28 01:15:00;;;;;;;4.17;3.87;;;;;;;8.69;81.52;101122.66;1703076;82;21183;-59
2021/09/28 01:17:28;;;;;;;4.17;3.87;;;;;;;8.67;81.43;101133.13;1684659;82;21165;-59
2021/09/28 01:19:55;;;;;;;6.97;5.03;;;;;;;8.57;81.31;101135.89;1699419;82;21606;-60
2021/09/28 01:22:22;;;;;;;6.85;5.00;;;;;;;8.48;81.26;101134.16;1687342;82;21487;-56
2021/09/28 01:24:49;;;;;;;6.83;5.27;;;;;;;8.39;81.31;101138.53;1694070;84;22326;-57
2021/09/28 01:27:17;;;;;;;11.65;4.53;;;;;;;8.35;81.49;101139.84;1686181;84;21024;-56
2021/09/28 01:29:44;;;;;;;5.33;4.07;;;;;;;8.35;81.29;101144.64;1700566;82;21024;-57
2021/09/28 01:32:12;;;;;;;5.17;3.80;;;;;;;8.34;81.49;101149.64;1695599;82;20978;-56
2021/09/28 01:34:39;;;;;;;4.73;4.33;;;;;;;8.35;81.67;101142.49;1700703;82;21016;-57
2021/09/28 01:37:06;;;;;;;5.03;4.35;;;;;;;8.34;81.70;101144.32;1706535;82;21570;-58
2021/09/28 01:39:32;;;;;;;5.12;4.72;;;;;;;8.34;81.76;101149.64;1707638;82;21602;-58
2021/09/28 01:41:59;;;;;;;4.20;3.90;;;;;;;8.31;81.70;101147.27;1687656;82;21075;-58
2021/09/28 01:44:27;;;;;;;5.72;5.17;;;;;;;8.20;81.56;101144.86;1698290;82;21285;-57
2021/09/28 01:46:54;;;;;;;6.77;4.90;;;;;;;8.07;81.74;101153.70;1689087;82;21116;-57
2021/09/28 01:49:21;;;;;;;4.78;4.33;;;;;;;7.93;82.00;101149.73;1701809;82;21220;-61
2021/09/28 01:51:48;;;;;;;4.53;4.17;;;;;;;7.89;82.26;101145.72;1698438;82;22213;-58
2021/09/28 01:54:15;;;;;;;4.80;4.40;;;;;;;7.84;82.43;101150.17;1693798;82;21033;-58
2021/09/28 01:56:43;;;;;;;4.80;4.33;;;;;;;7.79;82.53;101147.95;1691766;82;21606;-57
2021/09/28 01:59:11;;;;;;;5.77;4.90;;;;;;;7.77;83.05;101143.28;1688158;82;21023;-58
2021/09/28 02:01:39;;;;;;;5.53;4.90;;;;;;;7.73;83.44;101150.38;1684826;82;21578;-58
2021/09/28 02:04:05;;;;;;;;;;;;;;;7.58;84.72;101148.73;1698473;82;21056;-58
2021/09/28 02:06:39;;;;;;;6.28;5.47;;;;;;;7.50;85.17;101153.95;1689861;82;20222;-57
2021/09/28 02:09:09;;;;;;;7.70;6.57;;;;;;;7.42;84.92;101154.66;1700264;82;21103;-58
2021/09/28 02:11:37;;;;;;;10.37;7.53;;;;;;;7.40;85.19;101156.16;1698558;82;21024;-58
2021/09/28 02:14:07;;;;;;;11.77;7.60;;;;;;;7.41;85.58;101150.36;1695850;82;21080;-58
2021/09/28 02:16:34;;;;;;;8.00;6.90;;;;;;;7.44;86.38;101154.52;1687204;82;21025;-57
2021/09/28 02:19:01;;;;;;;8.47;6.83;;;;;;;7.45;86.85;101152.22;1696035;82;21586;-57
2021/09/28 02:21:27;;;;;;;10.93;7.95;;;;;;;7.43;87.14;101145.73;1697882;82;21017;-56
2021/09/28 02:23:55;;;;;;;8.33;6.77;;;;;;;7.43;87.55;101151.54;1698662;82;21134;-59
2021/09/28 02:26:22;;;;;;;8.00;6.70;;;;;;;7.44;88.19;101155.37;1695680;82;21048;-58
2021/09/28 02:28:48;;;;;;;8.40;7.53;;;;;;;7.46;88.45;101153.41;1690809;82;21585;-58
2021/09/28 02:31:14;;;;;;;;;;;;;;;7.50;88.54;101161.41;1698406;82;21032;-60
2021/09/28 02:33:41;;;;;;;9.83;7.27;;;;;;;7.51;88.55;101159.08;1695096;82;20097;-61
2021/09/28 02:36:07;;;;;;;12.63;8.38;;;;;;;7.51;88.72;101165.72;1693283;82;21150;-63
2021/09/28 02:38:33;;;;;;;12.75;8.23;;;;;;;7.55;88.79;101159.16;1686862;82;21048;-61
2021/09/28 02:40:59;;;;;;;11.50;8.60;;;;;;;7.56;88.70;101161.31;1707895;82;21633;-61
2021/09/28 02:43:25;;;;;;;11.88;7.72;;;;;;;7.53;88.86;101165.07;1709510;82;21131;-61
2021/09/28 02:45:52;;;;;;;15.10;7.87;;;;;;;7.57;89.10;101165.14;1700416;82;21116;-60
2021/09/28 02:48:21;;;;;;;7.30;6.50;;;;;;;7.66;88.75;101162.58;1709014;82;21108;-61
2021/09/28 02:50:48;;;;;;;6.97;6.27;;;;;;;7.70;88.63;101163.44;1700320;82;21040;-60
2021/09/28 02:53:15;;;;;;;;;;;;;;;7.76;88.50;101164.66;1714363;82;21100;-61
2021/09/28 02:55:42;;;;;;;6.87;5.60;;;;;;;7.76;88.23;101168.64;1693554;82;20456;-61
2021/09/28 02:58:08;;;;;;;9.00;7.07;;;;;;;7.69;88.25;101166.27;1691927;82;21029;-57
2021/09/28 03:00:36;;;;;;;6.37;5.77;;;;;;;7.62;88.50;101164.69;1700954;82;21035;-57
2021/09/28 03:03:02;;;;;;;5.57;5.00;;;;;;;7.54;88.81;101167.26;1710863;82;21039;-57
2021/09/28 03:05:28;;;;;;;;;;;;;;;7.54;88.73;101176.55;1703485;82;21064;-58
2021/09/28 03:07:55;;;;;;;4.40;4.00;;;;;;;7.58;88.78;101165.47;1701182;82;20114;-57
2021/09/28 03:10:21;;;;;;;4.00;3.70;;;;;;;7.60;88.77;101173.29;1692431;82;21060;-60
2021/09/28 03:12:50;;;;;;;4.00;3.70;;;;;;;7.64;88.73;101173.33;1702344;82;21092;-57
2021/09/28 03:15:16;;;;;;;3.75;3.37;;;;;;;7.68;88.27;101172.55;1707775;82;21123;-57
2021/09/28 03:17:42;;;;;;;4.10;3.80;;;;;;;7.67;87.84;101169.56;1692760;82;21032;-60
2021/09/28 03:20:10;;;;;;;;;;;;;;;7.59;88.06;101169.81;1686184;82;21099;-60
2021/09/28 03:22:37;;;;;;;4.37;3.98;;;;;;;7.54;88.09;101173.89;1692114;82;20280;-59
2021/09/28 03:25:05;;;;;;;4.13;3.63;;;;;;;7.44;88.18;101175.27;1693673;82;22232;-60
2021/09/28 03:27:31;;;;;;;3.93;3.53;;;;;;;7.43;87.99;101173.59;1705827;82;21028;-59
2021/09/28 03:29:59;;;;;;;3.40;3.20;;;;;;;7.46;87.71;101175.09;1697240;82;21071;-59
2021/09/28 03:32:26;;;;;;;3.83;3.53;;;;;;;7.43;87.48;101179.39;1693345;83;21581;-59
2021/09/28 03:34:52;;;;;;;4.58;4.12;;;;;;;7.38;87.53;101175.84;1690413;82;21406;-59
2021/09/28 03:37:19;;;;;;;4.80;4.30;;;;;;;7.36;87.87;101183.11;1692644;82;21067;-58
2021/09/28 03:39:45;;;;;;;4.40;4.00;;;;;;;7.35;87.80;101184.93;1710672;82;21012;-62
2021/09/28 03:42:11;;;;;;;4.15;3.80;;;;;;;7.34;87.90;101186.40;1689196;82;21072;-59
2021/09/28 03:44:38;;;;;;;3.90;3.60;;;;;;;7.35;87.94;101188.09;1690526;82;21050;-59
2021/09/28 03:47:04;;;;;;;;;;;;;;;7.07;89.10;101134.20;1702572;82;21009;-59
2021/09/28 03:49:30;;;;;;;4.57;4.00;;;;;;;7.60;89.63;101185.23;1670849;83;20122;-59
2021/09/28 03:51:57;;;;;;;4.85;4.45;;;;;;;7.77;90.15;101197.69;1682035;83;21565;-59
2021/09/28 03:54:23;;;;;;;5.15;4.70;;;;;;;7.87;88.45;101194.14;1679033;83;20953;-59
2021/09/28 03:56:50;;;;;;;7.63;5.23;;;;;;;7.89;87.36;101200.14;1623328;86;21592;-59
2021/09/28 03:59:16;;;;;;;4.90;4.50;;;;;;;7.92;88.20;101198.02;1669940;83;21122;-59
2021/09/28 04:01:43;;;;;;;5.90;4.20;;;;;;;8.04;88.20;101195.97;1667152;83;21062;-59
2021/09/28 04:04:10;;;;;;;;;;;;;;;8.12;88.02;101192.59;1671825;83;20972;-60
2021/09/28 04:06:36;;;;;;;8.25;4.72;;;;;;;8.15;87.47;101197.08;1667795;83;20167;-59
2021/09/28 04:09:02;;;;;;;4.75;4.20;;;;;;;8.07;86.21;101201.50;1669232;83;21084;-58
2021/09/28 04:11:28;;;;;;;5.45;4.92;;;;;;;8.05;85.75;101204.80;1689826;83;21012;-59
2021/09/28 04:13:55;;;;;;;4.37;4.05;;;;;;;8.06;85.73;101201.14;1676702;83;21056;-61
2021/09/28 04:16:21;;;;;;;11.93;6.03;;;;;;;8.04;85.51;101201.29;1661641;84;21115;-60
2021/09/28 04:18:49;;;;;;;6.92;4.72;;;;;;;8.13;86.25;101210.18;1661307;84;21359;-59
2021/09/28 04:21:15;;;;;;;6.17;5.57;;;;;;;8.18;85.46;101213.23;1682524;83;21120;-60
2021/09/28 04:23:41;;;;;;;5.65;5.10;;;;;;;8.12;84.87;101203.22;1676603;83;21199;-59
2021/09/28 04:26:11;;;;;;;5.90;5.30;;;;;;;8.02;85.38;101203.26;1677381;83;21086;-66
2021/09/28 04:28:38;;;;;;;7.67;5.97;;;;;;;8.03;85.95;101201.46;1679043;83;21116;-66
2021/09/28 04:31:04;;;;;;;5.28;4.40;;;;;;;8.08;85.67;101201.83;1683669;83;21067;-63
2021/09/28 04:33:32;;;;;;;9.10;5.90;;;;;;;8.10;85.46;101207.34;1666765;83;21086;-68
2021/09/28 04:35:59;;;;;;;6.67;5.27;;;;;;;8.16;85.43;101201.92;1683077;83;21595;-59
2021/09/28 04:38:25;;;;;;;6.97;6.20;;;;;;;8.18;85.19;101202.60;1675752;83;21522;-58
2021/09/28 04:40:51;;;;;;;6.08;5.53;;;;;;;8.21;85.00;101204.11;1680518;83;21060;-59
2021/09/28 04:43:17;;;;;;;8.85;7.60;;;;;;;8.19;84.96;101211.75;1676567;83;21159;-62
2021/09/28 04:45:43;;;;;;;7.65;6.92;;;;;;;8.15;84.99;101213.52;1683106;83;21084;-61
2021/09/28 04:48:10;;;;;;;10.47;7.53;;;;;;;8.10;84.76;101217.97;1673646;83;21068;-61
2021/09/28 04:50:36;;;;;;;11.50;7.45;;;;;;;8.06;84.55;101215.75;1680675;83;21610;-62
2021/09/28 04:53:04;;;;;;;11.70;7.13;;;;;;;8.03;84.58;101210.75;1669378;83;21020;-62
2021/09/28 04:58:32;;;;;;;8.97;6.97;;;;;;;8.02;85.23;101215.20;1782174;78;22933;-60
2021/09/28 05:00:59;;;;;;;6.83;6.22;;;;;;;7.95;84.98;101221.62;1724251;80;21395;-59
2021/09/28 05:03:25;;;;;;;13.80;7.17;;;;;;;7.89;85.18;101220.91;1693523;83;21039;-59
2021/09/28 05:05:51;;;;;;;8.45;6.60;;;;;;;7.87;85.15;101224.67;1677411;83;22069;-60
2021/09/28 05:08:18;;;;;;;7.97;7.07;;;;;;;7.94;85.47;101228.41;1689838;83;21138;-60
2021/09/28 05:10:47;;;;;;;8.48;6.40;;;;;;;7.98;85.28;101223.13;1689992;83;21551;-59
2021/09/28 05:13:14;;;;;;;7.13;6.43;;;;;;;8.03;85.01;101226.19;1692903;81;21079;-62
2021/09/28 05:15:40;;;;;;;6.03;5.30;;;;;;;8.07;84.97;101230.70;1637545;85;21017;-60
2021/09/28 05:18:06;;;;;;;10.78;6.67;;;;;;;8.09;84.53;101225.58;1629431;86;21604;-59
2021/09/28 05:20:35;;;;;;;6.67;5.33;;;;;;;8.07;84.26;101233.36;1647256;85;21165;-61
2021/09/28 05:23:03;;;;;;;6.17;5.67;;;;;;;8.07;84.51;101234.69;1632442;85;21071;-63
2021/09/28 05:25:30;;;;;;;6.37;5.77;;;;;;;8.07;84.34;101245.31;1612375;86;21051;-60
2021/09/28 05:27:56;;;;;;;7.33;5.00;;;;;;;8.03;84.28;101234.15;1642694;85;21161;-60
2021/09/28 05:30:24;;;;;;;6.42;5.80;;;;;;;7.98;84.43;101239.06;1649585;85;21072;-61
2021/09/28 05:32:50;;;;;;;6.37;5.77;;;;;;;7.92;84.75;101235.69;1644193;85;21619;-61
2021/09/28 05:35:16;;;;;;;5.70;5.20;;;;;;;7.91;84.99;101241.97;1682150;83;21097;-56
2021/09/28 05:37:42;;;;;;;4.95;4.42;;;;;;;7.95;85.01;101247.34;1647085;85;21158;-61
2021/09/28 05:40:11;;;;;;;8.13;5.70;;;;;;;8.06;85.54;101251.59;1646546;85;21557;-61
2021/09/28 05:42:37;;;;;;;4.40;4.00;;;;;;;8.15;84.95;101246.71;1653799;85;21090;-60
2021/09/28 05:45:05;;;;;;;6.05;5.45;;;;;;;8.20;84.36;101255.07;1657019;84;20998;-60
2021/09/28 05:47:31;;;;;;;9.30;7.07;;;;;;;8.22;83.97;101253.60;1615997;86;21593;-61
2021/09/28 05:49:57;;;;;;;6.47;5.87;;;;;;;8.16;83.88;101247.89;1628394;85;21570;-60
2021/09/28 05:52:23;;;;;;;7.28;6.45;;;;;;;8.13;84.03;101250.84;1623010;86;21007;-60
2021/09/28 05:54:50;;;;;;;5.45;4.95;;;;;;;7.90;83.95;101208.45;1636488;85;21539;-60
2021/09/28 05:57:19;;;;;;;4.75;4.35;;;;;;;8.13;83.83;101250.84;1661172;84;21052;-61
2021/09/28 05:59:46;;;;;;;6.07;4.90;;;;;;;7.89;83.94;101219.58;1642419;85;21375;-60
2021/09/28 06:02:15;;;;;;;6.97;5.37;;;;;;;8.12;84.16;101248.36;1621167;85;21091;-62
2021/09/28 06:04:41;;;;;;;4.43;4.03;;;;;;;8.18;84.65;101249.08;1601271;87;20992;-60
2021/09/28 06:07:08;;;;;;;6.87;4.53;;;;;;;8.33;84.67;101254.21;1598747;87;21095;-60
2021/09/28 06:09:39;;;;;;;4.90;4.50;;;;;;;8.50;84.56;101249.09;1605385;87;21116;-60
2021/09/28 06:12:09;;;;;;;6.97;6.30;;;;;;;8.70;83.96;101251.92;1609912;86;21002;-60
2021/09/28 06:14:36;;;;;;;8.13;6.37;;;;;;;8.86;83.64;101251.70;1682108;83;21013;-60
2021/09/28 06:17:04;;;;;;;7.80;6.00;;;;;;;9.00;82.44;101254.29;1685636;83;21160;-60
2021/09/28 06:19:30;;;;;;;10.30;5.33;;;;;;;9.09;81.73;101259.50;1686134;83;21524;-61
2021/09/28 06:21:57;;;;;;;6.37;5.85;;;;;;;9.22;81.86;101264.92;1696131;83;21090;-60
2021/09/28 06:24:23;;;;;;;8.73;5.93;;;;;;;9.33;81.50;101265.48;1671520;83;21102;-61
2021/09/28 06:26:49;;;;;;;;;;;;;;;9.39;80.74;101264.02;1680448;83;21030;-61
2021/09/28 06:29:17;;;;;;;6.47;5.97;;;;;;;9.41;80.69;101259.37;1686917;83;20288;-60
2021/09/28 06:31:44;;;;;;;7.40;5.90;;;;;;;9.40;80.92;101260.37;1685904;83;21333;-60
2021/09/28 06:34:12;;;;;;;6.47;5.20;;;;;;;9.50;80.42;101267.73;1668286;83;21532;-59
2021/09/28 06:36:38;;;;;;;8.53;6.00;;;;;;;9.61;79.89;101274.62;1662704;85;21548;-60
2021/09/28 06:39:07;;;;;;;6.77;5.60;;;;;;;9.69;79.65;101273.81;1663080;85;21106;-59
2021/09/28 06:41:34;;;;;;;9.93;5.20;;;;;;;9.73;79.13;101276.50;1659538;85;21152;-61
2021/09/28 06:44:00;;;;;;;7.55;5.80;;;;;;;9.64;78.25;101278.27;1662931;85;21057;-60
2021/09/28 06:46:29;;;;;;;9.90;4.97;;;;;;;9.53;78.67;101285.20;1649208;85;21183;-60
2021/09/28 06:48:55;;;;;;;10.43;5.28;;;;;;;9.53;78.87;101281.21;1657877;84;21284;-61
2021/09/28 06:51:22;;;;;;;6.43;4.87;;;;;;;9.57;78.56;101279.07;1654951;84;21077;-60
2021/09/28 06:53:49;;;;;;;11.12;5.10;;;;;;;9.58;78.65;101280.25;1656268;85;21194;-60
2021/09/28 06:56:17;;;;;;;6.93;5.63;;;;;;;9.59;78.48;101285.06;1673680;81;21596;-61
2021/09/28 06:58:45;;;;;;;8.17;5.40;;;;;;;9.61;78.63;101284.44;1662015;84;21129;-59
2021/09/28 07:01:12;;;;;;;8.10;4.47;;;;;;;9.68;78.41;101290.30;1656224;85;21080;-61
2021/09/28 07:03:39;;;;;;;7.00;4.30;;;;;;;9.76;77.53;101292.16;1660684;85;21537;-61
2021/09/28 07:06:07;;;;;;;5.80;4.97;;;;;;;9.83;77.43;101296.34;1656742;85;21637;-62
2021/09/28 07:08:33;;;;;;;6.10;5.47;;;;;;;9.92;77.24;101296.71;1659733;85;21002;-61
2021/09/28 07:11:01;;;;;;;7.93;5.87;;;;;;;9.87;76.83;101291.88;1662090;85;21184;-60
2021/09/28 07:13:27;;;;;;;6.75;5.55;;;;;;;9.78;77.10;101296.00;1657499;85;21170;-59
2021/09/28 07:15:53;;;;;;;5.00;4.45;;;;;;;9.73;77.34;101298.63;1654480;85;21591;-61
2021/09/28 07:18:19;;;;;;;3.72;3.42;;;;;;;9.72;77.49;101304.95;1640048;85;21636;-61
2021/09/28 07:20:47;;;;;;;4.70;4.33;;;;;;;9.75;77.13;101309.94;1655681;85;21042;-60
2021/09/28 07:23:14;;;;;;;4.85;4.45;;;;;;;9.69;76.87;101311.09;1655588;83;21045;-60
2021/09/28 07:25:44;;;;;;;5.23;4.73;;;;;;;9.59;77.17;101314.34;1652095;85;21106;-60
2021/09/28 07:28:10;;;;;;;4.77;4.37;;;;;;;9.51;77.50;101312.00;1655559;85;21555;-61
2021/09/28 07:30:39;;;;;;;4.57;4.17;;;;;;;9.51;77.60;101321.79;1638384;85;21082;-61
2021/09/28 07:33:06;;;;;;;4.60;4.17;;;;;;;9.49;77.46;101319.31;1653956;84;21064;-61
2021/09/28 07:35:32;;;;;;;;;;;;;;;9.53;77.84;101317.14;1658995;84;21045;-61
2021/09/28 07:37:58;;;;;;;4.93;4.50;;;;;;;9.57;77.93;101319.00;1664124;84;20141;-62
2021/09/28 07:40:26;;;;;;;10.57;5.33;;;;;;;9.53;78.34;101320.66;1660307;84;21531;-61
2021/09/28 07:42:52;;;;;;;7.90;4.60;;;;;;;9.61;78.31;101319.88;1665416;84;21725;-61
2021/09/28 07:45:20;;;;;;;5.22;4.75;;;;;;;9.54;78.07;101298.36;1669387;82;21109;-61
2021/09/28 07:47:47;;;;;;;8.27;4.73;;;;;;;9.86;77.91;101323.48;1671511;84;21073;-61
2021/09/28 07:50:14;;;;;;;4.50;4.13;;;;;;;10.03;77.28;101328.37;1667811;84;21018;-59
2021/09/28 07:52:41;;;;;;;7.20;5.10;;;;;;;10.21;77.25;101326.10;1657959;84;21072;-60
2021/09/28 07:55:09;;;;;;;5.92;5.42;;;;;;;10.41;76.72;101330.70;1664125;84;21654;-60
2021/09/28 07:57:37;;;;;;;5.90;5.37;;;;;;;10.49;75.43;101330.70;1663275;84;21666;-61
2021/09/28 08:00:07;;;;;;;11.03;5.15;;;;;;;10.46;75.97;101325.22;1658556;84;21480;-60
2021/09/28 08:02:38;;;;;;;11.20;7.77;;;;;;;10.54;75.85;101325.73;1669241;84;21044;-60
2021/09/28 08:05:08;;;;;;;8.57;6.03;;;;;;;10.64;75.54;101322.91;1667939;84;21135;-61
2021/09/28 08:07:35;;;;;;;7.13;4.50;;;;;;;10.77;75.35;101320.59;1666894;84;21541;-61
2021/09/28 08:10:03;;;;;;;12.47;5.60;;;;;;;10.95;75.21;101319.62;1662386;84;21069;-60
2021/09/28 08:12:30;;;;;;;9.43;6.35;;;;;;;11.08;74.23;101326.11;1662264;82;21049;-60
2021/09/28 08:14:58;;;;;;;10.17;6.13;;;;;;;11.13;74.21;101319.42;1656127;84;21093;-62
2021/09/28 08:17:24;;;;;;;7.83;5.83;;;;;;;11.20;73.61;101325.77;1654109;84;21155;-61
2021/09/28 08:19:52;;;;;;;10.75;5.95;;;;;;;11.20;73.31;101329.77;1652337;84;21100;-61
2021/09/28 08:22:19;;;;;;;8.03;6.00;;;;;;;11.21;73.60;101326.11;1662768;84;21029;-61
2021/09/28 08:24:50;;;;;;;7.83;5.45;;;;;;;11.36;73.28;101316.41;1671221;84;21053;-61
2021/09/28 08:30:05;;;;;;;8.45;6.03;;;;;;;11.70;72.63;101315.33;1661913;84;21042;-60
2021/09/28 08:32:31;;;;;;;8.60;5.53;;;;;;;11.81;72.05;101318.97;1663386;84;21092;-60
2021/09/28 08:34:58;;;;;;;6.95;5.75;;;;;;;11.88;71.69;101319.95;1657935;84;21072;-61
2021/09/28 08:37:26;;;;;;;9.45;5.53;;;;;;;11.94;70.86;101322.46;1667915;84;21061;-61
2021/09/28 08:39:54;;;;;;;7.03;5.33;;;;;;;11.99;70.20;101319.26;1651621;84;21002;-61
2021/09/28 08:42:22;;;;;;;6.35;4.87;;;;;;;12.01;70.16;101317.24;1653380;84;21610;-61
2021/09/28 08:44:49;;;;;;;8.08;6.10;;;;;;;12.10;69.91;101318.05;1654772;83;22133;-63
2021/09/28 08:47:15;;;;;;;13.60;6.15;;;;;;;12.13;70.13;101319.02;1660851;84;21606;-65
2021/09/28 08:49:42;;;;;;;8.48;5.97;;;;;;;12.21;70.15;101316.33;1659502;84;21192;-65
2021/09/28 08:52:10;;;;;;;6.83;5.78;;;;;;;12.31;70.10;101318.26;1667209;84;21084;-65
2021/09/28 08:54:37;;;;;;;10.30;5.55;;;;;;;12.39;69.59;101318.20;1666299;84;21085;-63
2021/09/28 08:57:05;;;;;;;20.75;6.60;;;;;;;12.49;69.70;101313.98;1685826;82;21506;-65
2021/09/28 08:59:49;;;;;;;10.93;5.55;;;;;;;12.62;69.28;101318.73;1707302;82;21107;-65
2021/09/28 09:02:16;;;;;;;7.80;5.17;;;;;;;12.74;68.89;101317.83;1707985;82;21016;-65
2021/09/28 09:04:44;;;;;;;8.05;4.30;;;;;;;12.80;68.40;101316.59;1695841;82;21059;-65
2021/09/28 09:07:26;;;;;;;12.90;5.37;;;;;;;12.87;67.55;101314.05;1699571;82;21159;-65
2021/09/28 09:09:52;;;;;;;12.53;5.30;;;;;;;12.89;66.58;101310.69;1701926;82;21115;-65
2021/09/28 09:12:40;;;;;;;9.95;4.70;;;;;;;12.83;67.18;101307.39;1691685;82;21116;-65
2021/09/28 09:15:22;;;;;;;12.05;5.95;;;;;;;12.85;67.60;101314.73;1690224;82;21135;-65
2021/09/28 09:17:52;;;;;;;9.85;4.87;;;;;;;12.93;67.22;101314.66;1685197;82;21096;-63
2021/09/28 09:20:27;;;;;;;9.03;3.67;;;;;;;13.03;65.83;101313.06;1709563;82;21086;-65
2021/09/28 09:22:59;;;;;;;9.58;4.45;;;;;;;13.09;65.40;101318.20;1690908;82;21678;-64
2021/09/28 09:25:27;;;;;;;14.90;4.80;;;;;;;13.10;65.37;101318.54;1691078;82;21140;-65
2021/09/28 09:27:55;;;;;;;9.33;5.03;;;;;;;13.10;65.77;101316.69;1701935;82;21056;-65
2021/09/28 09:30:22;;;;;;;9.10;4.37;;;;;;;13.09;65.87;101323.07;1690594;82;21143;-66
2021/09/28 09:32:59;;;;;;;8.43;4.78;;;;;;;13.11;66.08;101324.20;1710903;82;21708;-65
2021/09/28 09:35:32;;;;;;;13.20;5.35;;;;;;;13.13;65.97;101322.17;1707524;82;21040;-64
2021/09/28 09:38:13;;;;;;;12.68;5.10;;;;;;;13.10;65.88;101318.03;1700345;82;21549;-65
2021/09/28 09:40:45;;;;;;;13.75;6.03;;;;;;;13.03;66.07;101321.09;1701913;82;21123;-65
2021/09/28 09:43:15;;;;;;;9.90;6.08;;;;;;;12.99;66.55;101323.81;1696126;82;21087;-65
2021/09/28 09:45:42;;;;;;;7.72;4.62;;;;;;;12.95;66.51;101324.67;1702506;82;21016;-66
2021/09/28 09:48:26;;;;;;;9.95;4.40;;;;;;;12.91;66.12;101327.39;1695990;82;20997;-66
2021/09/28 09:51:09;;;;;;;12.00;4.92;;;;;;;12.80;66.53;101328.63;1702258;82;21008;-66
2021/09/28 09:53:40;;;;;;;17.12;4.75;;;;;;;12.72;66.89;101331.89;1693868;82;21619;-65
2021/09/28 09:56:07;;;;;;;8.15;4.35;;;;;;;12.67;67.10;101331.07;1700507;82;21079;-65
2021/09/28 09:58:33;;;;;;;7.72;4.03;;;;;;;12.65;67.13;101327.74;1700895;82;21111;-65
2021/09/28 10:01:01;;;;;;;10.08;4.67;;;;;;;12.65;67.16;101325.89;1704136;82;21151;-64
2021/09/28 10:03:27;;;;;;;14.15;5.25;;;;;;;12.58;67.67;101326.30;1696039;82;21661;-65
2021/09/28 10:05:53;;;;;;;12.45;4.40;;;;;;;12.48;67.81;101335.04;1695676;82;21108;-65
2021/09/28 10:08:21;;;;;;;20.55;4.60;;;;;;;12.43;67.69;101332.91;1697098;82;21147;-66
2021/09/28 10:10:57;;;;;;;19.32;4.85;;;;;;;12.43;67.73;101336.06;1691981;82;21040;-67
2021/09/28 10:13:52;;;;;;;13.17;4.33;;;;;;;12.46;67.62;101334.38;1693704;82;21601;-66
2021/09/28 10:16:40;;;;;;;9.40;4.58;;;;;;;12.56;67.15;101334.16;1702788;82;21416;-67
2021/09/28 10:19:36;;;;;;;18.02;4.42;;;;;;;12.59;67.23;101342.66;1703774;82;21067;-67
2021/09/28 10:22:01;;;;;;;7.85;4.83;;;;;;;12.66;67.36;101338.78;1695738;82;21044;-68
2021/09/28 10:24:29;;;;;;;;;;;;;;;12.68;67.29;101341.25;1665741;84;21002;-64
2021/09/28 10:27:05;;;;;;;21.35;4.35;;;;;;;12.71;66.82;101336.39;1670978;83;20644;-65
2021/09/28 10:29:44;;;;;;;10.78;4.15;;;;;;;12.69;65.66;101346.44;1669398;83;20993;-64
2021/09/28 10:32:32;;;;;;;14.90;4.45;;;;;;;12.70;66.01;101344.10;1675715;83;21122;-65
2021/09/28 10:35:09;;;;;;;8.88;4.60;;;;;;;12.64;66.64;101352.33;1668124;83;21078;-66
2021/09/28 10:37:52;;;;;;;16.07;4.80;;;;;;;12.52;67.11;101348.38;1656354;84;21109;-67
2021/09/28 10:40:36;;;;;;;11.18;4.53;;;;;;;12.46;67.48;101347.76;1667216;84;21148;-67
2021/09/28 10:43:09;;;;;;;16.07;4.85;;;;;;;12.48;67.69;101348.41;1661100;84;21045;-67
2021/09/28 10:45:41;;;;;;;16.85;4.50;;;;;;;12.53;67.78;101350.06;1665208;84;21001;-68
2021/09/28 10:48:30;;;;;;;7.55;2.98;;;;;;;12.59;67.56;101352.02;1651733;84;21259;-67
2021/09/28 10:51:13;;;;;;;15.20;4.62;;;;;;;12.62;67.69;101357.02;1659648;84;21120;-66
2021/09/28 10:53:47;;;;;;;15.35;4.47;;;;;;;12.60;67.44;101351.02;1658450;84;21068;-66
2021/09/28 10:56:16;;;;;;;15.85;5.17;;;;;;;12.60;67.98;101351.02;1645468;84;21102;-66
2021/09/28 10:58:55;;;;;;;9.05;3.60;;;;;;;12.66;67.37;101340.95;1644273;85;21627;-66
2021/09/28 11:01:26;;;;;;;14.65;4.55;;;;;;;12.76;67.19;101342.55;1645598;85;21620;-67
2021/09/28 11:04:16;;;;;;;15.05;4.65;;;;;;;12.83;67.24;101342.17;1644684;85;21130;-68
2021/09/28 11:06:53;;;;;;;24.02;5.58;;;;;;;12.90;67.02;101348.97;1645878;85;21118;-66
2021/09/28 11:09:25;;;;;;;11.20;3.90;;;;;;;12.95;66.57;101342.06;1643258;85;21608;-67
2021/09/28 11:11:57;;;;;;;15.43;3.45;;;;;;;13.04;65.79;101352.21;1657561;84;21060;-64
2021/09/28 11:14:26;;;;;;;11.60;3.52;;;;;;;13.14;62.84;101356.80;1665821;84;21572;-67
2021/09/28 11:17:00;;;;;;;14.15;3.30;;;;;;;13.21;62.11;101356.92;1669001;84;21528;-67
2021/09/28 11:19:38;;;;;;;19.52;3.85;;;;;;;13.28;61.51;101350.32;1664982;84;21045;-66
2021/09/28 11:22:10;;;;;;;10.88;3.45;;;;;;;13.34;60.99;101358.51;1652105;84;21112;-64
2021/09/28 11:24:39;;;;;;;12.73;2.98;;;;;;;13.37;60.77;101348.78;1666253;84;21037;-65
2021/09/28 11:27:12;;;;;;;8.95;3.00;;;;;;;13.36;60.64;101351.64;1658318;84;21060;-67
2021/09/28 11:29:40;;;;;;;13.43;3.65;;;;;;;13.32;60.83;101344.98;1676687;84;21564;-65
2021/09/28 11:32:10;;;;;;;18.77;3.75;;;;;;;13.29;61.04;101347.47;1660820;84;21073;-66
2021/09/28 11:34:41;;;;;;;14.35;4.20;;;;;;;13.26;61.05;101351.87;1661218;84;21064;-68
2021/09/28 11:37:08;;;;;;;14.73;3.30;;;;;;;13.24;61.06;101351.19;1656659;84;21559;-66
2021/09/28 11:39:40;;;;;;;13.08;4.15;;;;;;;13.23;61.06;101350.36;1661558;84;21208;-67
2021/09/28 11:42:09;;;;;;;15.72;3.87;;;;;;;13.18;61.35;101355.94;1662050;84;21657;-67
2021/09/28 11:44:41;;;;;;;18.85;4.47;;;;;;;13.16;61.81;101352.61;1667830;84;21044;-70